createdAt,value
2022-11-24T00:01:59.938Z,9.87
2022-11-24T00:04:48.451Z,9.97
2022-11-24T00:07:35.452Z,9.67
2022-11-24T00:10:22.440Z,9.07
2022-11-24T00:13:09.392Z,9.67
2022-11-24T00:16:06.974Z,9.90
2022-11-24T00:18:56.387Z,9.53
2022-11-24T00:21:43.432Z,9.07
2022-11-24T00:24:31.196Z,9.50
2022-11-24T00:27:20.439Z,8.57
2022-11-24T00:30:09.869Z,9.77
2022-11-24T00:32:59.032Z,9.73
2022-11-24T00:35:48.967Z,9.87
2022-11-24T00:38:38.220Z,10.50
2022-11-24T00:41:28.473Z,9.30
2022-11-24T00:44:15.562Z,9.73
2022-11-24T00:47:03.073Z,8.70
2022-11-24T00:49:50.104Z,8.63
2022-11-24T00:52:37.083Z,10.67
2022-11-24T00:55:24.080Z,9.57
2022-11-24T00:58:11.511Z,9.87
2022-11-24T01:01:04.637Z,10.13
2022-11-24T01:03:52.162Z,10.23
2022-11-24T01:06:39.234Z,9.77
2022-11-24T01:09:26.866Z,8.87
2022-11-24T01:12:13.834Z,10.47
2022-11-24T01:15:01.210Z,9.80
2022-11-24T01:17:48.236Z,9.97
2022-11-24T01:20:37.506Z,9.53
2022-11-24T01:23:24.516Z,9.97
2022-11-24T01:26:14.224Z,9.70
2022-11-24T01:29:01.177Z,10.03
2022-11-24T01:31:48.153Z,9.70
2022-11-24T01:34:35.259Z,9.90
2022-11-24T01:37:22.417Z,8.90
2022-11-24T01:40:10.218Z,9.77
2022-11-24T01:42:57.252Z,9.47
2022-11-24T01:45:45.236Z,9.93
2022-11-24T01:48:43.591Z,9.37
2022-11-24T01:51:34.230Z,9.27
2022-11-24T01:54:27.106Z,9.17
2022-11-24T01:57:48.818Z,9.67
2022-11-24T02:00:37.841Z,9.40
2022-11-24T02:03:29.165Z,9.10
2022-11-24T02:06:22.531Z,9.10
2022-11-24T02:09:37.176Z,8.80
2022-11-24T02:12:26.930Z,7.97
2022-11-24T02:15:17.580Z,8.83
2022-11-24T02:18:04.711Z,8.67
2022-11-24T02:20:51.913Z,9.13
2022-11-24T02:23:59.849Z,9.13
2022-11-24T02:26:49.193Z,9.70
2022-11-24T02:29:36.189Z,9.03
2022-11-24T02:32:23.745Z,8.80
2022-11-24T02:35:12.924Z,8.57
2022-11-24T02:37:59.999Z,8.93
2022-11-24T02:40:49.125Z,8.90
2022-11-24T02:43:42.181Z,8.33
2022-11-24T02:46:29.234Z,7.80
2022-11-24T02:49:16.186Z,8.50
2022-11-24T02:52:04.224Z,8.90
2022-11-24T02:54:51.198Z,8.43
2022-11-24T02:57:38.163Z,8.43
2022-11-24T03:00:25.187Z,9.07
2022-11-24T03:03:12.393Z,8.53
2022-11-24T03:05:59.462Z,9.27
2022-11-24T03:08:46.417Z,9.37
2022-11-24T03:11:33.659Z,9.33
2022-11-24T03:14:20.656Z,8.77
2022-11-24T03:17:07.691Z,8.77
2022-11-24T03:19:54.716Z,9.07
2022-11-24T03:22:41.680Z,9.23
2022-11-24T03:25:28.754Z,9.57
2022-11-24T03:28:16.176Z,9.83
2022-11-24T03:31:03.414Z,9.77
2022-11-24T03:33:50.456Z,9.00
2022-11-24T03:36:37.412Z,9.97
2022-11-24T03:39:24.403Z,9.33
2022-11-24T03:42:15.092Z,10.10
2022-11-24T03:45:23.077Z,11.13
2022-11-24T03:48:15.530Z,10.20
2022-11-24T03:51:05.144Z,9.53
2022-11-24T03:53:54.421Z,9.80
2022-11-24T03:56:43.734Z,9.50
2022-11-24T03:59:32.986Z,9.97
2022-11-24T04:02:22.951Z,10.43
2022-11-24T04:05:12.473Z,10.07
2022-11-24T04:08:03.694Z,10.53
2022-11-24T04:10:54.626Z,11.13
2022-11-24T04:13:42.020Z,10.00
2022-11-24T04:16:29.446Z,11.27
2022-11-24T04:19:16.902Z,10.83
2022-11-24T04:22:04.321Z,11.17
2022-11-24T04:24:51.729Z,11.43
2022-11-24T04:27:39.676Z,11.10
2022-11-24T04:30:28.189Z,11.40
2022-11-24T04:33:15.398Z,9.80
2022-11-24T04:36:02.353Z,11.10
2022-11-24T04:39:24.847Z,11.20
2022-11-24T04:41:58.621Z,9.43
2022-11-24T04:44:45.645Z,10.77
2022-11-24T04:47:32.853Z,10.60
2022-11-24T04:50:20.720Z,10.27
2022-11-24T04:53:07.668Z,11.80
2022-11-24T04:55:54.625Z,11.20
2022-11-24T04:58:41.598Z,10.70
2022-11-24T05:01:29.128Z,14.03
2022-11-24T05:04:16.263Z,10.67
2022-11-24T05:07:03.954Z,10.70
2022-11-24T05:10:09.438Z,12.18
2022-11-24T05:12:59.206Z,10.50
2022-11-24T05:15:46.641Z,10.33
2022-11-24T05:18:33.944Z,10.40
2022-11-24T05:21:20.856Z,9.73
2022-11-24T05:24:10.355Z,11.17
2022-11-24T05:26:57.732Z,10.23
2022-11-24T05:29:45.156Z,10.00
2022-11-24T05:32:32.561Z,10.93
2022-11-24T05:35:20.216Z,11.07
2022-11-24T05:38:07.820Z,10.60
2022-11-24T05:40:55.186Z,10.60
2022-11-24T05:43:42.973Z,10.77
2022-11-24T05:46:30.419Z,10.13
2022-11-24T05:49:17.822Z,10.23
2022-11-24T05:52:05.268Z,10.03
2022-11-24T05:54:52.603Z,10.23
2022-11-24T05:57:39.946Z,11.50
2022-11-24T06:00:27.398Z,10.43
2022-11-24T06:03:14.920Z,10.40
2022-11-24T06:06:03.096Z,10.80
2022-11-24T06:08:50.455Z,11.60
2022-11-24T06:11:37.800Z,11.00
2022-11-24T06:14:25.123Z,11.07
2022-11-24T06:17:12.702Z,10.67
2022-11-24T06:20:00.102Z,11.13
2022-11-24T06:22:48.193Z,11.10
2022-11-24T06:25:35.533Z,11.10
2022-11-24T06:28:22.861Z,11.30
2022-11-24T06:31:11.199Z,10.40
2022-11-24T06:33:58.610Z,10.83
2022-11-24T06:36:45.950Z,9.90
2022-11-24T06:39:33.328Z,10.67
2022-11-24T06:42:21.478Z,10.80
2022-11-24T06:45:09.746Z,10.70
2022-11-24T06:47:57.261Z,10.47
2022-11-24T06:50:44.793Z,11.40
2022-11-24T06:53:32.878Z,11.47
2022-11-24T06:56:21.249Z,10.97
2022-11-24T06:59:08.610Z,10.77
2022-11-24T07:01:55.520Z,11.93
2022-11-24T07:04:42.433Z,12.23
2022-11-24T07:07:29.379Z,14.40
2022-11-24T07:10:16.769Z,13.53
2022-11-24T07:13:04.240Z,12.30
2022-11-24T07:15:51.255Z,11.57
2022-11-24T07:18:38.164Z,12.53
2022-11-24T07:21:26.395Z,12.20
2022-11-24T07:24:13.311Z,13.13
2022-11-24T07:27:00.232Z,12.43
2022-11-24T07:29:47.160Z,11.60
2022-11-24T07:32:34.228Z,10.80
2022-11-24T07:35:21.144Z,11.97
2022-11-24T07:38:08.070Z,10.57
2022-11-24T07:40:55.026Z,12.20
2022-11-24T07:43:42.345Z,11.17
2022-11-24T07:46:29.387Z,11.50
2022-11-24T07:49:16.458Z,12.63
2022-11-24T07:52:04.421Z,12.60
2022-11-24T07:54:51.367Z,11.53
2022-11-24T07:57:38.431Z,11.33
2022-11-24T08:00:25.347Z,12.40
2022-11-24T08:03:12.325Z,13.37
2022-11-24T08:09:07.411Z,12.50
2022-11-24T08:11:54.368Z,14.20
2022-11-24T08:14:41.430Z,13.87
2022-11-24T08:17:28.808Z,14.17
2022-11-24T08:20:15.855Z,14.43
2022-11-24T08:23:02.869Z,13.70
2022-11-24T08:25:54.153Z,13.37
2022-11-24T08:28:44.830Z,13.00
2022-11-24T08:31:36.026Z,13.50
2022-11-24T08:34:25.073Z,13.90
2022-11-24T08:37:12.375Z,12.90
2022-11-24T08:39:59.300Z,13.40
2022-11-24T08:42:46.245Z,12.83
2022-11-24T08:45:36.756Z,13.33
2022-11-24T08:48:28.952Z,12.50
2022-11-24T08:51:19.003Z,12.77
2022-11-24T08:54:08.691Z,10.93
2022-11-24T08:56:56.032Z,11.80
2022-11-24T08:59:43.376Z,11.47
2022-11-24T09:02:31.418Z,12.50
2022-11-24T09:05:50.233Z,11.07
2022-11-24T09:08:26.521Z,10.43
2022-11-24T09:11:14.954Z,11.77
2022-11-24T09:14:01.975Z,11.03
2022-11-24T09:16:49.057Z,11.07
2022-11-24T09:19:36.416Z,10.47
2022-11-24T09:22:23.546Z,10.50
2022-11-24T09:25:10.533Z,10.83
2022-11-24T09:27:58.574Z,9.73
2022-11-24T09:30:45.592Z,10.37
2022-11-24T09:33:33.155Z,10.20
2022-11-24T09:36:20.559Z,10.00
2022-11-24T09:39:07.878Z,11.03
2022-11-24T09:42:33.979Z,10.83
2022-11-24T09:46:06.439Z,11.43
2022-11-24T09:48:57.337Z,11.97
2022-11-24T09:51:49.165Z,13.23
2022-11-24T09:54:41.144Z,10.27
2022-11-24T09:57:37.105Z,9.13
2022-11-24T10:00:25.200Z,8.27
2022-11-24T10:03:27.922Z,8.70
2022-11-24T10:06:31.476Z,7.83
2022-11-24T10:09:38.122Z,8.30
2022-11-24T10:12:53.959Z,8.63
2022-11-24T10:15:59.016Z,8.33
2022-11-24T10:19:04.591Z,9.53
2022-11-24T10:21:54.366Z,8.30
2022-11-24T10:25:03.764Z,8.70
2022-11-24T10:28:00.360Z,7.80
2022-11-24T10:30:47.679Z,9.07
2022-11-24T10:33:35.604Z,8.20
2022-11-24T10:36:34.554Z,12.90
2022-11-24T10:39:40.783Z,9.57
2022-11-24T10:42:36.925Z,9.50
2022-11-24T10:45:26.439Z,9.70
2022-11-24T10:48:22.078Z,10.60
2022-11-24T10:51:43.659Z,9.37
2022-11-24T10:54:31.049Z,5.77
2022-11-24T10:57:28.643Z,5.50
2022-11-24T11:00:22.001Z,6.57
2022-11-24T11:03:18.645Z,6.67
2022-11-24T11:06:13.160Z,6.03
2022-11-24T11:09:06.317Z,6.90
2022-11-24T11:11:53.873Z,6.60
2022-11-24T11:14:40.865Z,6.87
2022-11-24T11:17:36.628Z,7.23
2022-11-24T11:20:35.044Z,6.70
2022-11-24T11:23:24.682Z,6.67
2022-11-24T11:26:25.532Z,7.03
2022-11-24T11:35:37.613Z,6.80
2022-11-24T11:38:28.940Z,8.13
2022-11-24T11:41:29.616Z,7.70
2022-11-24T11:44:31.523Z,6.77
2022-11-24T11:47:33.266Z,7.37
2022-11-24T11:50:27.435Z,8.23
2022-11-24T11:53:44.707Z,8.73
2022-11-24T11:56:37.380Z,8.80
2022-11-24T11:59:30.495Z,9.80
2022-11-24T12:02:21.017Z,8.13
2022-11-24T12:05:45.658Z,9.07
2022-11-24T12:09:18.613Z,8.10
2022-11-24T12:12:05.530Z,8.67
2022-11-24T12:15:13.794Z,8.93
2022-11-24T12:18:55.968Z,9.20
2022-11-24T12:22:02.259Z,8.53
2022-11-24T12:24:50.073Z,9.03
2022-11-24T12:27:55.852Z,8.87
2022-11-24T12:30:51.578Z,9.57
2022-11-24T12:33:50.319Z,9.43
2022-11-24T12:37:02.920Z,9.20
2022-11-24T12:40:01.583Z,8.37
2022-11-24T12:43:11.661Z,8.80
2022-11-24T12:46:23.368Z,8.87
2022-11-24T12:49:32.268Z,8.57
2022-11-24T12:52:37.546Z,8.43
2022-11-24T12:55:25.394Z,8.07
2022-11-24T12:58:22.511Z,7.67
2022-11-24T13:01:21.324Z,8.13
2022-11-24T13:04:32.894Z,8.20
2022-11-24T13:07:23.324Z,8.33
2022-11-24T13:10:53.498Z,7.43
2022-11-24T13:14:07.595Z,7.87
2022-11-24T13:17:28.542Z,7.73
2022-11-24T13:20:21.760Z,8.23
2022-11-24T13:23:24.291Z,8.13
2022-11-24T13:26:27.611Z,6.90
2022-11-24T13:29:32.969Z,7.67
2022-11-24T13:32:20.976Z,7.83
2022-11-24T13:35:15.790Z,8.00
2022-11-24T13:38:05.170Z,8.43
2022-11-24T13:41:20.971Z,8.27
2022-11-24T13:44:17.013Z,8.87
2022-11-24T13:47:25.410Z,7.90
2022-11-24T13:50:18.282Z,8.10
2022-11-24T13:53:15.550Z,7.53
2022-11-24T13:56:17.189Z,7.63
2022-11-24T13:59:18.599Z,8.17
2022-11-24T14:02:21.544Z,6.87
2022-11-24T14:05:14.567Z,8.23
2022-11-24T14:08:02.394Z,8.17
2022-11-24T14:10:50.495Z,8.53
2022-11-24T14:13:37.496Z,8.63
2022-11-24T14:16:24.794Z,8.40
2022-11-24T14:19:18.312Z,8.87
2022-11-24T14:22:05.409Z,8.67
2022-11-24T14:24:55.149Z,9.53
2022-11-24T14:27:42.128Z,11.37
2022-11-24T14:30:29.320Z,12.43
2022-11-24T14:33:18.848Z,12.40
2022-11-24T14:36:05.931Z,11.93
2022-11-24T14:38:52.869Z,11.93
2022-11-24T14:41:40.719Z,11.73
2022-11-24T14:44:46.815Z,13.57
2022-11-24T14:47:44.993Z,13.73
2022-11-24T14:50:32.095Z,15.73
2022-11-24T14:53:26.201Z,12.03
2022-11-24T14:56:34.427Z,11.50
2022-11-24T14:59:24.619Z,10.60
2022-11-24T15:02:41.943Z,10.83
2022-11-24T15:05:52.125Z,10.17
2022-11-24T15:08:46.939Z,10.70
2022-11-24T15:11:34.975Z,11.27
2022-11-24T15:14:51.939Z,10.87
2022-11-24T15:17:45.850Z,11.73
2022-11-24T15:20:53.058Z,11.47
2022-11-24T15:23:42.151Z,10.40
2022-11-24T15:26:36.857Z,11.20
2022-11-24T15:29:28.938Z,10.97
2022-11-24T15:32:16.597Z,10.47
2022-11-24T15:35:04.480Z,10.70
2022-11-24T15:37:52.060Z,8.90
2022-11-24T15:40:39.892Z,19.00
2022-11-24T15:43:33.408Z,16.13
2022-11-24T15:46:20.847Z,9.93
2022-11-24T15:49:08.290Z,11.50
2022-11-24T15:51:55.641Z,10.33
2022-11-24T15:54:42.995Z,13.10
2022-11-24T15:57:30.472Z,12.03
2022-11-24T16:00:18.953Z,9.20
2022-11-24T16:03:38.417Z,9.17
2022-11-24T16:06:19.124Z,8.73
2022-11-24T16:09:17.406Z,7.63
2022-11-24T16:12:05.071Z,8.00
2022-11-24T16:14:52.451Z,9.80
2022-11-24T16:17:40.010Z,10.03
2022-11-24T16:20:27.406Z,9.13
2022-11-24T16:23:14.948Z,9.73
2022-11-24T16:26:04.205Z,10.43
2022-11-24T16:28:51.602Z,10.27
2022-11-24T16:31:38.984Z,9.60
2022-11-24T16:34:26.448Z,10.90
2022-11-24T16:37:13.802Z,12.10
2022-11-24T16:40:02.443Z,10.80
2022-11-24T16:42:50.257Z,9.97
2022-11-24T16:45:40.855Z,11.97
2022-11-24T16:48:35.968Z,10.68
2022-11-24T16:51:24.314Z,8.50
2022-11-24T16:54:11.676Z,10.20
2022-11-24T16:56:58.799Z,8.90
2022-11-24T16:59:48.560Z,9.47
2022-11-24T17:02:35.812Z,9.03
2022-11-24T17:05:22.763Z,8.13
2022-11-24T17:08:09.734Z,8.63
2022-11-24T17:10:56.691Z,9.93
2022-11-24T17:13:45.491Z,10.23
2022-11-24T17:16:32.518Z,11.97
2022-11-24T17:19:20.743Z,10.80
2022-11-24T17:22:07.683Z,9.37
2022-11-24T17:24:54.745Z,9.53
2022-11-24T17:27:41.722Z,8.03
2022-11-24T17:30:28.631Z,10.70
2022-11-24T17:33:15.634Z,8.07
2022-11-24T17:36:04.484Z,7.73
2022-11-24T17:38:51.595Z,7.30
2022-11-24T17:41:38.844Z,7.70
2022-11-24T17:44:26.743Z,7.87
2022-11-24T17:47:14.935Z,7.57
2022-11-24T17:50:02.132Z,8.33
2022-11-24T17:52:49.058Z,9.30
2022-11-24T17:55:36.003Z,11.03
2022-11-24T17:58:22.994Z,7.97
2022-11-24T18:01:11.503Z,8.30
2022-11-24T18:03:59.110Z,9.33
2022-11-24T18:06:47.610Z,8.23
2022-11-24T18:09:34.960Z,9.00
2022-11-24T18:12:22.356Z,8.53
2022-11-24T18:15:09.858Z,10.00
2022-11-24T18:17:56.821Z,12.23
2022-11-24T18:20:43.757Z,11.50
2022-11-24T18:23:31.835Z,12.97
2022-11-24T18:26:19.333Z,12.10
2022-11-24T18:29:06.467Z,10.70
2022-11-24T18:31:53.513Z,11.27
2022-11-24T18:34:40.543Z,11.83
2022-11-24T18:37:32.259Z,10.83
2022-11-24T18:40:19.275Z,12.37
2022-11-24T18:43:06.694Z,11.20
2022-11-24T18:45:54.018Z,12.10
2022-11-24T18:48:42.415Z,11.07
2022-11-24T18:51:29.913Z,12.73
2022-11-24T18:54:16.831Z,11.53
2022-11-24T18:57:03.984Z,13.80
2022-11-24T18:59:50.929Z,12.23
2022-11-24T19:02:37.963Z,11.73
2022-11-24T19:05:25.009Z,11.77
2022-11-24T19:08:11.973Z,13.90
2022-11-24T19:10:59.478Z,11.80
2022-11-24T19:13:47.668Z,12.10
2022-11-24T19:16:35.647Z,13.50
2022-11-24T19:19:22.697Z,13.13
2022-11-24T19:22:09.660Z,13.73
2022-11-24T19:24:56.605Z,12.60
2022-11-24T19:27:43.808Z,14.90
2022-11-24T19:30:30.829Z,12.97
2022-11-24T19:33:18.819Z,10.30
2022-11-24T19:36:15.344Z,8.00
2022-11-24T19:39:04.791Z,9.23
2022-11-24T19:41:53.513Z,7.80
2022-11-24T19:44:40.508Z,7.00
2022-11-24T19:47:28.419Z,7.57
2022-11-24T19:50:15.394Z,8.33
2022-11-24T19:53:02.352Z,7.40
2022-11-24T19:55:49.367Z,7.07
2022-11-24T19:58:36.975Z,7.93
2022-11-24T20:01:30.220Z,6.57
2022-11-24T20:04:17.449Z,7.37
2022-11-24T20:07:04.435Z,6.77
2022-11-24T20:09:51.405Z,7.97
2022-11-24T20:12:38.362Z,7.27
2022-11-24T20:15:25.308Z,11.03
2022-11-24T20:18:12.365Z,8.63
2022-11-24T20:21:09.064Z,8.60
2022-11-24T20:24:03.807Z,8.13
2022-11-24T20:26:58.856Z,9.67
2022-11-24T20:29:47.829Z,10.37
2022-11-24T20:32:36.053Z,10.40
2022-11-24T20:35:22.993Z,13.10
2022-11-24T20:41:17.514Z,12.87
2022-11-24T20:44:10.417Z,10.30
2022-11-24T20:47:00.276Z,11.73
2022-11-24T20:49:49.151Z,13.70
2022-11-24T20:52:36.079Z,12.73
2022-11-24T20:55:23.047Z,11.20
2022-11-24T20:58:10.003Z,14.23
2022-11-24T21:01:03.402Z,13.30
2022-11-24T21:04:00.182Z,20.17
2022-11-24T21:06:47.433Z,8.90
2022-11-24T21:09:34.396Z,14.73
2022-11-24T21:12:22.490Z,10.93
2022-11-24T21:15:09.709Z,9.37
2022-11-24T21:17:56.668Z,7.77
2022-11-24T21:20:43.874Z,9.93
2022-11-24T21:23:31.257Z,10.77
2022-11-24T21:26:19.551Z,8.60
2022-11-24T21:29:07.732Z,9.50
2022-11-24T21:31:54.897Z,9.10
2022-11-24T21:34:41.921Z,8.10
2022-11-24T21:37:28.856Z,9.00
2022-11-24T21:40:16.311Z,10.87
2022-11-24T21:43:03.625Z,12.27
2022-11-24T21:45:50.587Z,14.97
2022-11-24T21:48:38.562Z,13.97
2022-11-24T21:51:25.553Z,13.10
2022-11-24T21:54:12.499Z,11.63
2022-11-24T21:56:59.463Z,10.13
2022-11-24T21:59:46.379Z,9.47
2022-11-24T22:02:33.409Z,7.30
2022-11-24T22:05:20.367Z,9.03
2022-11-24T22:08:07.409Z,8.77
2022-11-24T22:11:00.493Z,7.83
2022-11-24T22:13:48.039Z,6.80
2022-11-24T22:16:35.079Z,7.03
2022-11-24T22:19:22.093Z,7.27
2022-11-24T22:22:09.022Z,7.93
2022-11-24T22:24:56.104Z,8.37
2022-11-24T22:27:43.044Z,6.93
2022-11-24T22:30:30.021Z,10.30
2022-11-24T22:33:16.990Z,8.00
2022-11-24T22:36:04.652Z,7.37
2022-11-24T22:38:56.547Z,7.73
2022-11-24T22:41:43.477Z,7.67
2022-11-24T22:44:30.419Z,8.00
2022-11-24T22:47:17.559Z,8.03
2022-11-24T22:50:05.198Z,11.90
2022-11-24T22:52:52.119Z,10.67
2022-11-24T22:55:39.038Z,9.47
2022-11-24T22:58:26.003Z,8.97
2022-11-24T23:01:15.487Z,8.77
2022-11-24T23:04:03.637Z,9.03
2022-11-24T23:06:51.050Z,9.27
2022-11-24T23:09:38.215Z,7.30
2022-11-24T23:12:25.169Z,7.10
2022-11-24T23:15:12.129Z,7.10
2022-11-24T23:17:59.045Z,8.03
2022-11-24T23:20:46.043Z,8.87
2022-11-24T23:23:33.575Z,7.83
2022-11-24T23:26:26.517Z,6.93
2022-11-24T23:29:13.579Z,6.80
2022-11-24T23:32:00.626Z,7.13
2022-11-24T23:34:47.568Z,7.20
2022-11-24T23:38:00.044Z,7.90
2022-11-24T23:40:41.372Z,8.63
2022-11-24T23:43:28.513Z,9.80
2022-11-24T23:46:20.253Z,10.40
2022-11-24T23:49:07.380Z,8.43
2022-11-24T23:51:54.318Z,7.23
2022-11-24T23:57:46.082Z,6.50
